createdAt,value
2022-12-04T00:01:47.289Z,81.40
2022-12-04T00:04:18.252Z,81.20
2022-12-04T00:06:51.651Z,81.17
2022-12-04T00:09:24.998Z,81.25
2022-12-04T00:11:55.623Z,80.85
2022-12-04T00:14:26.241Z,80.95
2022-12-04T00:16:56.958Z,80.90
2022-12-04T00:19:27.537Z,80.95
2022-12-04T00:21:58.227Z,80.65
2022-12-04T00:24:29.124Z,80.99
2022-12-04T00:26:59.797Z,80.43
2022-12-04T00:29:30.891Z,80.58
2022-12-04T00:32:01.619Z,80.73
2022-12-04T00:34:32.468Z,81.07
2022-12-04T00:37:03.346Z,80.78
2022-12-04T00:39:34.064Z,80.88
2022-12-04T00:42:05.038Z,80.57
2022-12-04T00:44:35.799Z,80.58
2022-12-04T00:47:06.509Z,80.61
2022-12-04T00:49:37.351Z,80.47
2022-12-04T00:52:08.079Z,80.64
2022-12-04T00:54:38.778Z,80.81
2022-12-04T00:57:09.664Z,80.76
2022-12-04T00:59:40.979Z,80.93
2022-12-04T01:02:11.615Z,80.70
2022-12-04T01:04:42.290Z,81.14
2022-12-04T01:07:13.025Z,80.63
2022-12-04T01:09:43.821Z,81.09
2022-12-04T01:12:20.347Z,80.69
2022-12-04T01:14:51.543Z,81.14
2022-12-04T01:17:22.171Z,81.08
2022-12-04T01:19:53.078Z,80.71
2022-12-04T01:22:24.072Z,80.59
2022-12-04T01:24:58.016Z,80.71
2022-12-04T01:27:29.151Z,80.74
2022-12-04T01:29:59.950Z,80.67
2022-12-04T01:32:31.103Z,80.80
2022-12-04T01:35:01.853Z,80.96
2022-12-04T01:37:34.598Z,81.02
2022-12-04T01:40:06.081Z,80.78
2022-12-04T01:42:36.790Z,80.89
2022-12-04T01:45:41.126Z,81.02
2022-12-04T01:48:20.008Z,80.98
2022-12-04T01:50:55.367Z,81.09
2022-12-04T01:53:26.753Z,81.09
2022-12-04T01:55:58.619Z,81.10
2022-12-04T01:58:34.196Z,81.18
2022-12-04T02:01:09.122Z,81.12
2022-12-04T02:03:40.842Z,80.96
2022-12-04T02:06:11.712Z,81.15
2022-12-04T02:08:42.667Z,81.07
2022-12-04T02:11:26.816Z,80.70
2022-12-04T02:14:08.073Z,80.94
2022-12-04T02:16:46.172Z,81.15
2022-12-04T02:19:34.758Z,80.97
2022-12-04T02:22:15.086Z,81.30
2022-12-04T02:24:54.026Z,81.04
2022-12-04T02:27:34.980Z,81.30
2022-12-04T02:30:08.286Z,81.05
2022-12-04T02:32:46.995Z,80.98
2022-12-04T02:35:22.872Z,81.23
2022-12-04T02:38:00.152Z,80.72
2022-12-04T02:40:38.172Z,80.74
2022-12-04T02:43:15.013Z,80.89
2022-12-04T02:45:49.381Z,81.00
2022-12-04T02:48:23.370Z,80.83
2022-12-04T02:50:57.853Z,81.12
2022-12-04T02:53:33.004Z,80.93
2022-12-04T02:56:07.843Z,80.79
2022-12-04T02:58:45.742Z,80.85
2022-12-04T03:01:20.430Z,80.57
2022-12-04T03:03:56.393Z,80.92
2022-12-04T03:06:32.299Z,81.00
2022-12-04T03:09:08.782Z,81.07
2022-12-04T03:11:44.811Z,80.96
2022-12-04T03:14:19.200Z,80.78
2022-12-04T03:16:53.098Z,80.74
2022-12-04T03:19:28.161Z,80.88
2022-12-04T03:22:02.320Z,81.07
2022-12-04T03:24:37.556Z,80.92
2022-12-04T03:27:13.884Z,80.95
2022-12-04T03:29:51.299Z,80.94
2022-12-04T03:32:27.843Z,80.99
2022-12-04T03:35:04.332Z,80.76
2022-12-04T03:37:42.230Z,81.14
2022-12-04T03:40:21.079Z,80.71
2022-12-04T03:42:57.816Z,81.02
2022-12-04T03:45:37.562Z,81.14
2022-12-04T03:48:22.666Z,81.16
2022-12-04T03:50:58.787Z,80.93
2022-12-04T03:53:36.057Z,81.05
2022-12-04T03:56:12.070Z,81.08
2022-12-04T03:58:47.723Z,81.05
2022-12-04T04:01:22.118Z,81.43
2022-12-04T04:03:56.278Z,81.48
2022-12-04T04:06:31.947Z,81.25
2022-12-04T04:09:08.295Z,81.36
2022-12-04T04:11:44.693Z,81.16
2022-12-04T04:14:37.343Z,81.18
2022-12-04T04:17:34.918Z,81.11
2022-12-04T04:20:32.988Z,81.20
2022-12-04T04:23:24.336Z,81.16
2022-12-04T04:25:58.051Z,81.25
2022-12-04T04:28:34.167Z,81.28
2022-12-04T04:31:22.756Z,80.81
2022-12-04T04:34:00.846Z,81.45
2022-12-04T04:36:42.674Z,81.24
2022-12-04T04:39:22.562Z,81.51
2022-12-04T04:41:58.875Z,81.70
2022-12-04T04:44:39.773Z,81.94
2022-12-04T04:47:17.827Z,81.64
2022-12-04T04:49:51.004Z,81.66
2022-12-04T04:52:21.433Z,81.31
2022-12-04T04:54:52.166Z,81.59
2022-12-04T04:57:35.923Z,81.96
2022-12-04T05:00:08.702Z,81.65
2022-12-04T05:02:39.758Z,81.77
2022-12-04T05:05:11.510Z,81.80
2022-12-04T05:07:42.440Z,82.03
2022-12-04T05:10:14.008Z,81.97
2022-12-04T05:12:44.627Z,81.88
2022-12-04T05:15:15.452Z,82.15
2022-12-04T05:17:46.126Z,81.82
2022-12-04T05:20:17.035Z,81.81
2022-12-04T05:22:47.594Z,82.14
2022-12-04T05:25:18.519Z,81.72
2022-12-04T05:27:49.173Z,82.04
2022-12-04T05:30:20.482Z,81.98
2022-12-04T05:32:51.232Z,81.91
2022-12-04T05:35:22.107Z,81.86
2022-12-04T05:37:52.786Z,81.62
2022-12-04T05:40:23.669Z,81.71
2022-12-04T05:42:54.286Z,81.80
2022-12-04T05:45:25.006Z,82.18
2022-12-04T05:47:55.570Z,81.68
2022-12-04T05:50:26.260Z,81.94
2022-12-04T05:52:56.843Z,82.27
2022-12-04T05:55:27.590Z,82.36
2022-12-04T05:57:58.394Z,82.05
2022-12-04T06:00:29.196Z,82.09
2022-12-04T06:02:59.875Z,82.23
2022-12-04T06:05:30.609Z,82.08
2022-12-04T06:08:01.395Z,81.89
2022-12-04T06:10:32.838Z,81.92
2022-12-04T06:13:03.480Z,81.82
2022-12-04T06:15:37.419Z,81.88
2022-12-04T06:18:08.562Z,81.79
2022-12-04T06:20:39.316Z,81.76
2022-12-04T06:23:10.185Z,82.18
2022-12-04T06:25:40.914Z,81.92
2022-12-04T06:28:11.547Z,82.00
2022-12-04T06:30:42.205Z,82.09
2022-12-04T06:33:12.951Z,81.89
2022-12-04T06:35:43.672Z,81.81
2022-12-04T06:38:14.397Z,81.97
2022-12-04T06:40:45.096Z,81.95
2022-12-04T06:43:15.834Z,81.97
2022-12-04T06:45:46.651Z,81.99
2022-12-04T06:48:17.336Z,81.69
2022-12-04T06:50:48.053Z,81.81
2022-12-04T06:53:18.685Z,82.15
2022-12-04T06:55:51.496Z,82.30
2022-12-04T06:58:22.198Z,82.16
2022-12-04T07:00:52.959Z,82.03
2022-12-04T07:03:24.031Z,82.23
2022-12-04T07:05:54.645Z,82.06
2022-12-04T07:08:25.438Z,82.17
2022-12-04T07:10:59.341Z,82.09
2022-12-04T07:13:30.175Z,81.94
2022-12-04T07:16:05.006Z,81.86
2022-12-04T07:18:37.031Z,81.78
2022-12-04T07:21:10.489Z,82.36
2022-12-04T07:23:41.491Z,82.72
2022-12-04T07:26:14.838Z,82.40
2022-12-04T07:28:46.237Z,82.37
2022-12-04T07:31:18.715Z,82.23
2022-12-04T07:33:50.110Z,82.10
2022-12-04T07:36:22.408Z,82.32
2022-12-04T07:38:53.833Z,82.54
2022-12-04T07:41:25.079Z,82.72
2022-12-04T07:43:56.296Z,82.23
2022-12-04T07:46:28.780Z,82.35
2022-12-04T07:49:00.374Z,82.17
2022-12-04T07:51:31.965Z,82.51
2022-12-04T07:54:04.446Z,82.79
2022-12-04T07:56:35.751Z,82.64
2022-12-04T07:59:06.345Z,82.56
2022-12-04T08:01:37.169Z,82.31
2022-12-04T08:04:08.617Z,82.83
2022-12-04T08:06:39.913Z,82.63
2022-12-04T08:09:11.021Z,82.72
2022-12-04T08:11:42.448Z,82.47
2022-12-04T08:14:14.912Z,82.65
2022-12-04T08:16:51.028Z,82.52
2022-12-04T08:19:23.772Z,82.80
2022-12-04T08:21:56.352Z,82.85
2022-12-04T08:24:27.008Z,83.12
2022-12-04T08:26:57.697Z,83.27
2022-12-04T08:29:28.420Z,82.86
2022-12-04T08:31:59.626Z,83.54
2022-12-04T08:34:30.462Z,83.15
2022-12-04T08:37:01.187Z,83.32
2022-12-04T08:39:32.263Z,83.33
2022-12-04T08:42:02.866Z,83.13
2022-12-04T08:44:33.511Z,83.76
2022-12-04T08:47:04.131Z,83.53
2022-12-04T08:49:34.985Z,83.70
2022-12-04T08:52:05.981Z,83.36
2022-12-04T08:54:36.605Z,83.71
2022-12-04T08:57:07.280Z,83.61
2022-12-04T08:59:38.217Z,83.40
2022-12-04T09:02:09.826Z,83.70
2022-12-04T09:04:40.524Z,83.54
2022-12-04T09:07:11.266Z,83.68
2022-12-04T09:09:47.906Z,83.54
2022-12-04T09:12:19.202Z,84.04
2022-12-04T09:14:49.837Z,83.48
2022-12-04T09:17:20.699Z,83.72
2022-12-04T09:19:51.310Z,84.19
2022-12-04T09:22:21.967Z,83.84
2022-12-04T09:24:52.766Z,84.03
2022-12-04T09:27:23.557Z,84.19
2022-12-04T09:29:54.820Z,84.10
2022-12-04T09:32:25.638Z,84.27
2022-12-04T09:34:56.319Z,84.03
2022-12-04T09:37:27.101Z,84.18
2022-12-04T09:39:58.026Z,83.94
2022-12-04T09:42:38.644Z,84.25
2022-12-04T09:45:15.792Z,84.22
2022-12-04T09:47:49.739Z,84.17
2022-12-04T09:50:22.777Z,84.00
2022-12-04T09:52:59.654Z,83.89
2022-12-04T09:55:34.027Z,84.08
2022-12-04T09:58:11.523Z,84.09
2022-12-04T10:00:47.211Z,84.39
2022-12-04T10:03:21.155Z,83.60
2022-12-04T10:06:01.598Z,84.22
2022-12-04T10:08:36.422Z,83.94
2022-12-04T10:11:15.786Z,83.82
2022-12-04T10:14:00.724Z,83.99
2022-12-04T10:16:41.879Z,83.98
2022-12-04T10:19:25.569Z,83.94
2022-12-04T10:22:04.873Z,84.13
2022-12-04T10:24:46.866Z,84.09
2022-12-04T10:27:24.815Z,83.91
2022-12-04T10:29:59.650Z,83.96
2022-12-04T10:32:33.859Z,83.92
2022-12-04T10:35:17.115Z,83.76
2022-12-04T10:37:50.475Z,83.95
2022-12-04T10:40:26.315Z,83.87
2022-12-04T10:43:03.761Z,84.06
2022-12-04T10:45:34.665Z,83.90
2022-12-04T10:48:08.028Z,83.97
2022-12-04T10:50:38.761Z,83.83
2022-12-04T10:53:13.963Z,83.79
2022-12-04T10:55:45.018Z,83.97
2022-12-04T10:58:20.546Z,83.89
2022-12-04T11:01:05.088Z,83.98
2022-12-04T11:03:36.626Z,83.89
2022-12-04T11:06:10.515Z,84.07
2022-12-04T11:08:43.278Z,84.09
2022-12-04T11:11:16.534Z,84.14
2022-12-04T11:13:47.244Z,83.86
2022-12-04T11:16:36.076Z,84.21
2022-12-04T11:19:19.854Z,84.02
2022-12-04T11:21:51.386Z,84.04
2022-12-04T11:24:26.272Z,84.14
2022-12-04T11:26:57.964Z,84.05
2022-12-04T11:29:36.536Z,83.77
2022-12-04T11:32:14.755Z,83.76
2022-12-04T11:34:48.901Z,83.80
2022-12-04T11:37:23.916Z,83.96
2022-12-04T11:39:56.693Z,83.70
2022-12-04T11:42:30.085Z,83.49
2022-12-04T11:45:02.277Z,83.51
2022-12-04T11:47:34.643Z,83.63
2022-12-04T11:50:14.749Z,83.65
2022-12-04T11:53:06.654Z,83.63
2022-12-04T11:55:48.529Z,83.04
2022-12-04T11:58:55.443Z,83.34
2022-12-04T12:01:37.627Z,83.27
2022-12-04T12:04:40.739Z,83.12
2022-12-04T12:07:25.416Z,83.02
2022-12-04T12:10:04.701Z,83.10
2022-12-04T12:12:47.939Z,83.02
2022-12-04T12:15:27.879Z,83.07
2022-12-04T12:18:19.118Z,83.12
2022-12-04T12:21:03.969Z,83.13
2022-12-04T12:23:50.542Z,82.88
2022-12-04T12:26:21.755Z,82.63
2022-12-04T12:29:11.579Z,82.78
2022-12-04T12:32:00.620Z,82.78
2022-12-04T12:34:38.587Z,82.69
2022-12-04T12:37:17.469Z,82.89
2022-12-04T12:39:52.398Z,82.84
2022-12-04T12:42:27.918Z,82.79
2022-12-04T12:45:07.496Z,82.89
2022-12-04T12:47:44.802Z,82.94
2022-12-04T12:50:18.650Z,82.86
2022-12-04T12:52:57.417Z,82.87
2022-12-04T12:55:31.855Z,82.96
2022-12-04T12:58:08.527Z,83.11
2022-12-04T13:00:44.825Z,82.94
2022-12-04T13:03:40.239Z,82.89
2022-12-04T13:06:15.912Z,82.99
2022-12-04T13:08:57.279Z,82.89
2022-12-04T13:11:29.721Z,82.84
2022-12-04T13:14:02.368Z,82.71
2022-12-04T13:16:38.416Z,82.69
2022-12-04T13:19:17.991Z,82.79
2022-12-04T13:21:57.387Z,82.53
2022-12-04T13:24:59.520Z,82.41
2022-12-04T13:27:42.282Z,82.35
2022-12-04T13:30:20.071Z,82.35
2022-12-04T13:33:14.628Z,82.21
2022-12-04T13:36:07.498Z,82.43
2022-12-04T13:38:47.455Z,82.49
2022-12-04T13:41:21.677Z,82.72
2022-12-04T13:43:53.732Z,82.50
2022-12-04T13:46:34.085Z,82.39
2022-12-04T13:49:26.295Z,82.22
2022-12-04T13:51:58.350Z,82.47
2022-12-04T13:54:34.934Z,82.21
2022-12-04T13:57:22.868Z,82.36
2022-12-04T14:00:08.153Z,82.32
2022-12-04T14:02:53.023Z,82.41
2022-12-04T14:05:32.331Z,82.28
2022-12-04T14:08:08.078Z,82.25
2022-12-04T14:10:40.470Z,82.04
2022-12-04T14:13:21.254Z,82.02
2022-12-04T14:16:07.872Z,82.15
2022-12-04T14:18:39.401Z,82.20
2022-12-04T14:21:10.325Z,82.34
2022-12-04T14:23:42.531Z,82.26
2022-12-04T14:26:37.295Z,82.30
2022-12-04T14:29:33.959Z,82.48
2022-12-04T14:32:15.446Z,82.34
2022-12-04T14:34:48.046Z,82.37
2022-12-04T14:37:27.839Z,82.44
2022-12-04T14:40:00.092Z,82.30
2022-12-04T14:42:36.811Z,82.17
2022-12-04T14:45:18.755Z,82.06
2022-12-04T14:48:00.073Z,82.10
2022-12-04T14:50:40.721Z,82.07
2022-12-04T14:53:22.257Z,81.90
2022-12-04T14:56:07.698Z,81.86
2022-12-04T14:58:40.586Z,82.06
2022-12-04T15:01:28.630Z,81.98
2022-12-04T15:04:08.408Z,82.11
2022-12-04T15:06:44.634Z,82.20
2022-12-04T15:09:38.153Z,82.22
2022-12-04T15:12:34.611Z,82.17
2022-12-04T15:15:15.096Z,82.16
2022-12-04T15:17:56.210Z,82.39
2022-12-04T15:20:27.734Z,82.06
2022-12-04T15:22:59.797Z,82.27
2022-12-04T15:25:36.064Z,82.29
2022-12-04T15:28:13.367Z,82.15
2022-12-04T15:30:45.242Z,82.04
2022-12-04T15:33:21.690Z,82.15
2022-12-04T15:35:57.248Z,82.18
2022-12-04T15:38:28.467Z,82.09
2022-12-04T15:41:01.795Z,82.07
2022-12-04T15:43:39.743Z,82.28
2022-12-04T15:46:22.654Z,82.33
2022-12-04T15:48:53.504Z,82.22
2022-12-04T15:51:24.182Z,82.25
2022-12-04T15:53:54.948Z,82.29
2022-12-04T15:56:25.827Z,82.34
2022-12-04T15:59:00.587Z,82.34
2022-12-04T16:01:41.511Z,82.20
2022-12-04T16:04:23.125Z,82.21
2022-12-04T16:06:54.853Z,82.37
2022-12-04T16:09:27.513Z,82.26
2022-12-04T16:12:03.468Z,82.42
2022-12-04T16:14:34.392Z,82.44
2022-12-04T16:17:06.610Z,82.27
2022-12-04T16:19:39.784Z,82.37
2022-12-04T16:22:20.225Z,82.05
2022-12-04T16:24:51.781Z,82.02
2022-12-04T16:27:24.105Z,81.88
2022-12-04T16:29:55.594Z,81.96
2022-12-04T16:32:29.762Z,81.95
2022-12-04T16:35:01.588Z,81.85
2022-12-04T16:37:32.557Z,82.00
2022-12-04T16:40:06.579Z,81.88
2022-12-04T16:42:37.494Z,81.98
2022-12-04T16:45:22.598Z,81.72
2022-12-04T16:47:52.324Z,81.54
2022-12-04T16:50:23.241Z,81.60
2022-12-04T16:52:54.345Z,81.48
2022-12-04T16:55:37.428Z,81.54
2022-12-04T16:58:09.166Z,81.36
2022-12-04T17:00:39.960Z,81.49
2022-12-04T17:03:15.502Z,81.48
2022-12-04T17:05:46.359Z,81.16
2022-12-04T17:08:17.447Z,81.17
2022-12-04T17:10:48.721Z,81.17
2022-12-04T17:13:21.963Z,81.14
2022-12-04T17:15:52.697Z,81.34
2022-12-04T17:18:23.455Z,81.56
2022-12-04T17:20:54.296Z,81.35
2022-12-04T17:23:25.346Z,81.50
2022-12-04T17:25:55.921Z,81.40
2022-12-04T17:28:26.524Z,81.46
2022-12-04T17:30:57.400Z,81.53
2022-12-04T17:33:28.574Z,81.51
2022-12-04T17:36:00.346Z,81.33
2022-12-04T17:38:31.053Z,81.37
2022-12-04T17:41:02.948Z,81.22
2022-12-04T17:43:34.548Z,81.33
2022-12-04T17:46:09.188Z,81.24
2022-12-04T17:48:40.323Z,81.59
2022-12-04T17:51:13.337Z,81.27
2022-12-04T17:53:42.436Z,81.16
2022-12-04T17:56:17.375Z,81.35
2022-12-04T17:58:49.129Z,81.53
2022-12-04T18:01:22.407Z,81.41
2022-12-04T18:03:55.190Z,81.31
2022-12-04T18:06:27.400Z,81.21
2022-12-04T18:08:59.000Z,81.16
2022-12-04T18:11:31.568Z,81.03
2022-12-04T18:14:10.172Z,80.81
2022-12-04T18:16:45.460Z,80.89
2022-12-04T18:19:16.985Z,80.77
2022-12-04T18:21:47.673Z,80.68
2022-12-04T18:24:19.473Z,80.60
2022-12-04T18:26:51.336Z,80.63
2022-12-04T18:29:24.619Z,80.50
2022-12-04T18:31:56.094Z,80.53
2022-12-04T18:34:27.206Z,80.61
2022-12-04T18:36:58.014Z,80.70
2022-12-04T18:39:29.023Z,80.69
2022-12-04T18:41:59.667Z,80.52
2022-12-04T18:44:30.898Z,80.89
2022-12-04T18:47:01.540Z,80.88
2022-12-04T18:49:32.527Z,80.96
2022-12-04T18:52:03.697Z,80.81
2022-12-04T18:54:34.506Z,80.86
2022-12-04T18:57:05.118Z,80.97
2022-12-04T18:59:37.445Z,80.97
2022-12-04T19:02:08.416Z,80.81
2022-12-04T19:04:40.140Z,80.86
2022-12-04T19:07:10.764Z,81.05
2022-12-04T19:10:09.934Z,80.66
2022-12-04T19:12:32.128Z,80.79
2022-12-04T19:15:02.950Z,81.09
2022-12-04T19:17:33.751Z,82.89
2022-12-04T19:20:04.703Z,81.18
2022-12-04T19:22:35.585Z,80.51
2022-12-04T19:25:07.459Z,80.46
2022-12-04T19:27:38.102Z,80.21
2022-12-04T19:30:10.991Z,80.20
2022-12-04T19:32:41.745Z,80.16
2022-12-04T19:35:12.891Z,80.91
2022-12-04T19:37:48.156Z,80.92
2022-12-04T19:40:22.569Z,80.69
2022-12-04T19:42:55.899Z,80.59
2022-12-04T19:45:30.438Z,80.18
2022-12-04T19:48:01.128Z,79.95
2022-12-04T19:50:32.468Z,80.24
2022-12-04T19:53:03.225Z,79.96
2022-12-04T19:55:36.366Z,80.21
2022-12-04T19:58:07.796Z,80.19
2022-12-04T20:00:38.477Z,80.24
2022-12-04T20:03:09.103Z,80.26
2022-12-04T20:05:40.411Z,80.20
2022-12-04T20:10:40.650Z,82.40
2022-12-04T20:13:12.552Z,80.89
2022-12-04T20:15:43.374Z,80.68
2022-12-04T20:18:14.270Z,80.32
2022-12-04T20:20:47.824Z,80.33
2022-12-04T20:23:18.471Z,80.40
2022-12-04T20:25:49.195Z,80.32
2022-12-04T20:28:21.363Z,80.09
2022-12-04T20:30:52.391Z,79.87
2022-12-04T20:33:23.152Z,80.08
2022-12-04T20:35:55.459Z,80.31
2022-12-04T20:38:26.389Z,80.26
2022-12-04T20:40:57.000Z,80.01
2022-12-04T20:43:28.509Z,80.06
2022-12-04T20:45:59.237Z,80.22
2022-12-04T20:48:30.596Z,80.25
2022-12-04T20:51:03.245Z,80.23
2022-12-04T20:53:33.926Z,80.15
2022-12-04T20:56:04.686Z,80.05
2022-12-04T20:58:35.421Z,79.84
2022-12-04T21:01:10.445Z,80.00
2022-12-04T21:03:42.038Z,80.22
2022-12-04T21:06:17.059Z,80.10
2022-12-04T21:08:54.095Z,79.93
2022-12-04T21:11:25.567Z,80.00
2022-12-04T21:14:15.946Z,79.76
2022-12-04T21:16:48.370Z,79.64
2022-12-04T21:19:20.929Z,79.66
2022-12-04T21:21:52.827Z,79.53
2022-12-04T21:24:26.586Z,79.38
2022-12-04T21:26:57.488Z,79.30
2022-12-04T21:29:28.283Z,79.48
2022-12-04T21:31:58.856Z,79.55
2022-12-04T21:34:29.712Z,79.66
2022-12-04T21:37:00.409Z,79.51
2022-12-04T21:39:31.153Z,79.31
2022-12-04T21:42:19.758Z,79.10
2022-12-04T21:44:50.579Z,79.04
2022-12-04T21:47:21.295Z,79.11
2022-12-04T21:49:52.072Z,78.94
2022-12-04T21:52:23.303Z,79.21
2022-12-04T21:54:55.267Z,79.45
2022-12-04T21:57:26.395Z,79.40
2022-12-04T21:59:57.389Z,79.31
2022-12-04T22:02:28.483Z,79.44
2022-12-04T22:04:59.313Z,79.42
2022-12-04T22:07:29.917Z,79.49
2022-12-04T22:10:04.076Z,79.67
2022-12-04T22:12:52.131Z,79.52
2022-12-04T22:15:22.859Z,79.16
2022-12-04T22:17:53.904Z,79.13
2022-12-04T22:20:24.507Z,78.94
2022-12-04T22:22:55.147Z,78.66
2022-12-04T22:25:25.859Z,78.40
2022-12-04T22:27:57.013Z,78.38
2022-12-04T22:30:28.991Z,77.93
2022-12-04T22:32:59.613Z,78.11
2022-12-04T22:35:30.330Z,77.87
2022-12-04T22:38:00.944Z,77.85
2022-12-04T22:40:31.543Z,77.63
2022-12-04T22:43:02.110Z,77.70
2022-12-04T22:45:32.950Z,77.68
2022-12-04T22:48:03.773Z,77.55
2022-12-04T22:50:34.414Z,77.62
2022-12-04T22:53:05.052Z,77.58
2022-12-04T22:55:37.378Z,77.50
2022-12-04T22:58:08.032Z,77.56
2022-12-04T23:00:38.719Z,77.47
2022-12-04T23:03:09.434Z,77.54
2022-12-04T23:05:40.612Z,77.54
2022-12-04T23:08:11.358Z,77.76
2022-12-04T23:10:42.213Z,77.71
2022-12-04T23:13:13.013Z,77.75
2022-12-04T23:15:43.740Z,77.59
2022-12-04T23:18:14.305Z,77.69
2022-12-04T23:20:44.926Z,77.34
2022-12-04T23:23:15.655Z,77.44
2022-12-04T23:25:46.327Z,77.63
2022-12-04T23:28:17.015Z,77.22
2022-12-04T23:30:50.539Z,77.51
2022-12-04T23:33:21.199Z,77.37
2022-12-04T23:35:55.307Z,77.60
2022-12-04T23:38:27.801Z,77.63
2022-12-04T23:41:05.105Z,77.48
2022-12-04T23:43:36.240Z,77.30
2022-12-04T23:46:11.380Z,77.44
2022-12-04T23:48:43.558Z,77.57
2022-12-04T23:51:16.119Z,77.69
2022-12-04T23:53:47.616Z,77.61
2022-12-04T23:56:20.411Z,77.43
2022-12-04T23:58:53.037Z,77.31
